createdAt,value
2018-09-20T00:01:03.634Z,12.37
2018-09-20T00:03:32.320Z,11.93
2018-09-20T00:06:00.938Z,13.97
2018-09-20T00:08:29.534Z,15.03
2018-09-20T00:10:58.818Z,11.73
2018-09-20T00:13:27.444Z,10.97
2018-09-20T00:15:56.101Z,13.03
2018-09-20T00:18:24.690Z,9.40
2018-09-20T00:20:53.371Z,12.77
2018-09-20T00:23:21.984Z,14.50
2018-09-20T00:25:50.627Z,11.90
2018-09-20T00:28:19.237Z,14.00
2018-09-20T00:30:48.065Z,11.63
2018-09-20T00:33:16.749Z,16.90
2018-09-20T00:35:45.442Z,12.27
2018-09-20T00:38:14.128Z,10.23
2018-09-20T00:40:42.756Z,15.30
2018-09-20T00:43:11.417Z,14.43
2018-09-20T00:45:40.038Z,15.53
2018-09-20T00:48:08.740Z,12.87
2018-09-20T00:50:37.604Z,12.20
2018-09-20T00:53:06.697Z,12.73
2018-09-20T00:55:35.467Z,13.80
2018-09-20T00:58:04.070Z,12.60
2018-09-20T01:00:32.750Z,13.43
2018-09-20T01:03:01.379Z,14.83
2018-09-20T01:05:30.108Z,11.70
2018-09-20T01:07:58.713Z,13.43
2018-09-20T01:10:27.328Z,15.50
2018-09-20T01:12:55.933Z,12.90
2018-09-20T01:15:24.597Z,11.77
2018-09-20T01:17:53.205Z,13.60
2018-09-20T01:20:21.872Z,13.97
2018-09-20T01:22:50.505Z,15.70
2018-09-20T01:25:19.171Z,13.13
2018-09-20T01:27:47.832Z,12.37
2018-09-20T01:30:16.446Z,18.50
2018-09-20T01:32:45.192Z,18.73
2018-09-20T01:35:13.886Z,14.17
2018-09-20T01:37:42.670Z,15.60
2018-09-20T01:40:11.356Z,17.07
2018-09-20T01:42:40.018Z,16.47
2018-09-20T01:45:08.626Z,15.90
2018-09-20T01:47:37.239Z,18.57
2018-09-20T01:50:06.355Z,19.10
2018-09-20T01:52:35.034Z,17.73
2018-09-20T01:55:03.645Z,16.57
2018-09-20T01:57:32.259Z,19.87
2018-09-20T02:00:00.895Z,18.60
2018-09-20T02:02:29.621Z,17.93
2018-09-20T02:04:58.215Z,17.87
2018-09-20T02:07:26.855Z,19.07
2018-09-20T02:09:55.519Z,22.23
2018-09-20T02:12:24.113Z,18.63
2018-09-20T02:14:52.796Z,20.57
2018-09-20T02:17:21.431Z,16.97
2018-09-20T02:19:50.068Z,17.57
2018-09-20T02:22:18.714Z,17.27
2018-09-20T02:24:47.373Z,18.40
2018-09-20T02:27:16.089Z,20.30
2018-09-20T02:29:44.701Z,16.63
2018-09-20T02:32:13.299Z,18.70
2018-09-20T02:34:41.911Z,19.37
2018-09-20T02:37:10.558Z,20.83
2018-09-20T02:39:39.266Z,22.37
2018-09-20T02:42:07.910Z,16.93
2018-09-20T02:44:36.505Z,18.80
2018-09-20T02:47:05.159Z,17.30
2018-09-20T02:49:33.858Z,18.43
2018-09-20T02:52:02.481Z,17.20
2018-09-20T02:54:31.014Z,17.33
2018-09-20T02:56:59.693Z,18.73
2018-09-20T02:59:28.302Z,18.90
2018-09-20T03:01:56.998Z,16.60
2018-09-20T03:04:25.672Z,17.63
2018-09-20T03:06:54.374Z,15.20
2018-09-20T03:09:23.016Z,19.63
2018-09-20T03:11:51.652Z,15.40
2018-09-20T03:14:20.345Z,16.87
2018-09-20T03:16:49.027Z,22.97
2018-09-20T03:19:17.665Z,14.57
2018-09-20T03:21:46.326Z,17.00
2018-09-20T03:24:14.915Z,18.67
2018-09-20T03:26:43.611Z,19.83
2018-09-20T03:29:12.277Z,13.27
2018-09-20T03:31:40.909Z,20.93
2018-09-20T03:34:09.587Z,18.40
2018-09-20T03:36:38.189Z,19.47
2018-09-20T03:39:09.170Z,15.90
2018-09-20T03:41:37.827Z,15.40
2018-09-20T03:44:06.486Z,19.30
2018-09-20T03:46:35.355Z,20.57
2018-09-20T03:49:04.522Z,17.13
2018-09-20T03:51:33.158Z,18.30
2018-09-20T03:54:01.826Z,19.13
2018-09-20T03:56:30.451Z,15.90
2018-09-20T03:58:59.136Z,16.53
2018-09-20T04:01:27.730Z,16.80
2018-09-20T04:03:56.339Z,16.00
2018-09-20T04:06:25.100Z,15.93
2018-09-20T04:08:53.748Z,16.73
2018-09-20T04:11:22.378Z,16.57
2018-09-20T04:13:50.970Z,19.03
2018-09-20T04:16:19.568Z,15.80
2018-09-20T04:18:48.225Z,17.43
2018-09-20T04:21:24.007Z,16.63
2018-09-20T04:23:52.599Z,18.00
2018-09-20T04:26:21.202Z,17.63
2018-09-20T04:28:49.859Z,18.57
2018-09-20T04:31:18.450Z,17.00
2018-09-20T04:33:47.089Z,17.83
2018-09-20T04:36:15.763Z,18.57
2018-09-20T04:38:44.371Z,20.57
2018-09-20T04:41:12.966Z,16.17
2018-09-20T04:43:41.666Z,20.23
2018-09-20T04:46:10.338Z,17.13
2018-09-20T04:48:39.014Z,19.37
2018-09-20T04:51:07.667Z,22.17
2018-09-20T04:53:36.285Z,17.50
2018-09-20T04:56:05.059Z,19.87
2018-09-20T04:58:33.761Z,16.07
2018-09-20T05:01:02.614Z,16.47
2018-09-20T05:03:31.262Z,18.20
2018-09-20T05:05:59.887Z,21.10
2018-09-20T05:08:28.512Z,17.77
2018-09-20T05:10:57.102Z,16.17
2018-09-20T05:13:25.799Z,14.67
2018-09-20T05:15:54.429Z,19.47
2018-09-20T05:18:23.034Z,15.07
2018-09-20T05:20:51.716Z,20.63
2018-09-20T05:23:20.368Z,15.73
2018-09-20T05:25:49.059Z,15.97
2018-09-20T05:28:17.723Z,16.10
2018-09-20T05:30:46.378Z,18.57
2018-09-20T05:33:15.082Z,24.53
2018-09-20T05:35:43.707Z,21.80
2018-09-20T05:38:12.388Z,16.73
2018-09-20T05:40:41.806Z,19.50
2018-09-20T05:43:10.587Z,20.43
2018-09-20T05:45:39.315Z,17.90
2018-09-20T05:48:07.992Z,20.23
2018-09-20T05:50:36.888Z,18.77
2018-09-20T05:53:05.585Z,18.00
2018-09-20T05:55:34.291Z,17.93
2018-09-20T05:58:03.035Z,22.80
2018-09-20T06:00:31.677Z,19.60
2018-09-20T06:03:00.378Z,19.77
2018-09-20T06:05:29.063Z,17.87
2018-09-20T06:07:57.772Z,20.50
2018-09-20T06:10:26.439Z,18.30
2018-09-20T06:12:55.079Z,23.90
2018-09-20T06:15:23.724Z,19.00
2018-09-20T06:17:52.588Z,18.20
2018-09-20T06:20:21.203Z,24.70
2018-09-20T06:22:49.932Z,23.03
2018-09-20T06:25:18.530Z,22.67
2018-09-20T06:27:47.389Z,22.17
2018-09-20T06:30:16.795Z,20.93
2018-09-20T06:32:45.481Z,19.83
2018-09-20T06:35:14.298Z,26.63
2018-09-20T06:37:43.208Z,21.30
2018-09-20T06:40:11.954Z,23.53
2018-09-20T06:42:40.594Z,20.43
2018-09-20T06:45:09.290Z,20.53
2018-09-20T06:47:38.013Z,23.80
2018-09-20T06:50:06.906Z,24.53
2018-09-20T06:52:35.636Z,20.23
2018-09-20T06:55:04.412Z,19.93
2018-09-20T06:57:35.768Z,23.20
2018-09-20T07:00:05.780Z,23.17
2018-09-20T07:02:34.883Z,19.13
2018-09-20T07:05:04.332Z,25.60
2018-09-20T07:07:33.641Z,22.60
2018-09-20T07:10:04.529Z,17.80
2018-09-20T07:12:33.273Z,27.17
2018-09-20T07:15:02.012Z,25.20
2018-09-20T07:17:30.706Z,19.10
2018-09-20T07:19:59.432Z,25.37
2018-09-20T07:22:28.089Z,23.83
2018-09-20T07:24:56.816Z,20.10
2018-09-20T07:27:25.617Z,20.03
2018-09-20T07:29:54.392Z,20.40
2018-09-20T07:32:23.094Z,19.13
2018-09-20T07:34:51.847Z,19.90
2018-09-20T07:37:20.514Z,17.40
2018-09-20T07:39:49.092Z,19.07
2018-09-20T07:42:17.746Z,18.97
2018-09-20T07:44:46.521Z,17.97
2018-09-20T07:47:15.263Z,20.13
2018-09-20T07:49:43.847Z,16.70
2018-09-20T07:52:12.577Z,19.00
2018-09-20T07:54:41.207Z,17.40
2018-09-20T07:57:09.870Z,16.03
2018-09-20T07:59:38.551Z,20.27
2018-09-20T08:02:07.318Z,16.33
2018-09-20T08:04:36.001Z,17.33
2018-09-20T08:07:04.752Z,15.00
2018-09-20T08:09:33.422Z,14.87
2018-09-20T08:12:02.178Z,13.23
2018-09-20T08:14:30.868Z,21.00
2018-09-20T08:17:00.265Z,17.77
2018-09-20T08:19:29.268Z,17.43
2018-09-20T08:21:58.032Z,19.03
2018-09-20T08:24:27.022Z,17.87
2018-09-20T08:26:55.848Z,15.90
2018-09-20T08:29:24.556Z,16.23
2018-09-20T08:31:53.347Z,18.23
2018-09-20T08:34:22.185Z,15.37
2018-09-20T08:36:50.931Z,16.77
2018-09-20T08:39:19.608Z,12.47
2018-09-20T08:41:48.391Z,15.30
2018-09-20T08:44:17.037Z,14.50
2018-09-20T08:46:45.710Z,13.30
2018-09-20T08:49:14.493Z,17.40
2018-09-20T08:51:43.273Z,14.67
2018-09-20T08:54:12.081Z,14.67
2018-09-20T08:56:40.972Z,16.10
2018-09-20T08:59:09.668Z,18.37
2018-09-20T09:01:38.405Z,16.13
2018-09-20T09:04:08.068Z,18.90
2018-09-20T09:06:36.831Z,14.23
2018-09-20T09:09:08.338Z,15.60
2018-09-20T09:11:38.096Z,14.97
2018-09-20T09:14:07.390Z,16.57
2018-09-20T09:16:36.154Z,11.07
2018-09-20T09:19:04.896Z,13.80
2018-09-20T09:21:33.788Z,19.97
2018-09-20T09:24:02.510Z,13.17
2018-09-20T09:26:31.214Z,13.83
2018-09-20T09:28:59.929Z,14.07
2018-09-20T09:31:28.637Z,13.07
2018-09-20T09:33:57.373Z,13.13
2018-09-20T09:36:26.092Z,15.77
2018-09-20T09:38:55.492Z,11.63
2018-09-20T09:42:04.383Z,14.30
2018-09-20T09:44:33.111Z,16.70
2018-09-20T09:47:01.858Z,16.77
2018-09-20T09:49:30.567Z,12.80
2018-09-20T09:51:59.356Z,20.03
2018-09-20T09:54:28.231Z,14.93
2018-09-20T09:56:56.910Z,17.20
2018-09-20T09:59:25.682Z,10.77
2018-09-20T10:01:54.389Z,15.40
2018-09-20T10:04:23.574Z,12.57
2018-09-20T10:06:52.383Z,13.47
2018-09-20T10:09:21.071Z,17.73
2018-09-20T10:11:50.791Z,20.07
2018-09-20T10:14:19.505Z,13.83
2018-09-20T10:16:48.267Z,18.20
2018-09-20T10:19:17.225Z,15.37
2018-09-20T10:21:46.064Z,15.00
2018-09-20T10:24:14.844Z,12.10
2018-09-20T10:26:43.514Z,11.80
2018-09-20T10:29:12.672Z,12.17
2018-09-20T10:31:41.368Z,13.40
2018-09-20T10:34:10.273Z,13.37
2018-09-20T10:36:38.875Z,15.93
2018-09-20T10:39:09.567Z,13.23
2018-09-20T10:41:38.492Z,15.47
2018-09-20T10:44:07.647Z,11.97
2018-09-20T10:46:36.392Z,13.37
2018-09-20T10:49:05.253Z,11.50
2018-09-20T10:51:34.475Z,9.97
2018-09-20T10:54:03.106Z,15.83
2018-09-20T10:56:31.779Z,11.17
2018-09-20T10:59:00.481Z,10.73
2018-09-20T11:01:29.184Z,11.07
2018-09-20T11:03:57.911Z,12.43
2018-09-20T11:06:27.284Z,12.07
2018-09-20T11:08:56.076Z,12.00
2018-09-20T11:11:24.824Z,9.93
2018-09-20T11:13:53.698Z,12.03
2018-09-20T11:16:22.362Z,11.57
2018-09-20T11:18:51.116Z,11.23
2018-09-20T11:21:19.918Z,11.37
2018-09-20T11:23:48.675Z,12.37
2018-09-20T11:26:17.425Z,10.70
2018-09-20T11:28:46.147Z,11.00
2018-09-20T11:31:14.838Z,11.90
2018-09-20T11:33:43.499Z,9.77
2018-09-20T11:36:12.331Z,10.70
2018-09-20T11:38:41.018Z,12.10
2018-09-20T11:41:09.735Z,10.03
2018-09-20T11:43:38.409Z,11.53
2018-09-20T11:46:07.143Z,12.00
2018-09-20T11:48:35.848Z,13.00
2018-09-20T11:51:04.478Z,11.50
2018-09-20T11:53:33.194Z,12.17
2018-09-20T11:56:01.843Z,10.77
2018-09-20T11:58:30.566Z,13.90
2018-09-20T12:00:59.232Z,14.17
2018-09-20T12:03:28.004Z,12.37
2018-09-20T12:05:56.697Z,11.47
2018-09-20T12:08:25.391Z,12.63
2018-09-20T12:10:54.218Z,10.93
2018-09-20T12:13:22.975Z,8.80
2018-09-20T12:15:51.844Z,11.47
2018-09-20T12:18:20.571Z,11.83
2018-09-20T12:20:49.245Z,8.37
2018-09-20T12:23:17.960Z,11.70
2018-09-20T12:25:46.718Z,9.00
2018-09-20T12:28:15.337Z,8.63
2018-09-20T12:30:43.985Z,15.27
2018-09-20T12:33:12.725Z,9.63
2018-09-20T12:35:41.660Z,10.33
2018-09-20T12:38:10.403Z,9.57
2018-09-20T12:40:39.076Z,12.00
2018-09-20T12:43:07.777Z,7.70
2018-09-20T12:45:36.586Z,10.73
2018-09-20T12:48:05.437Z,13.77
2018-09-20T12:50:34.106Z,20.13
2018-09-20T12:53:02.836Z,12.17
2018-09-20T12:55:31.640Z,12.13
2018-09-20T12:58:01.243Z,10.23
2018-09-20T13:00:29.917Z,11.60
2018-09-20T13:02:58.648Z,9.20
2018-09-20T13:05:27.597Z,10.30
2018-09-20T13:07:56.311Z,7.63
2018-09-20T13:10:25.111Z,12.53
2018-09-20T13:12:53.827Z,9.87
2018-09-20T13:15:22.813Z,7.47
2018-09-20T13:17:51.523Z,11.30
2018-09-20T13:20:20.246Z,8.40
2018-09-20T13:22:48.875Z,11.23
2018-09-20T13:25:17.691Z,14.10
2018-09-20T13:27:46.302Z,8.57
2018-09-20T13:30:14.920Z,9.50
2018-09-20T13:32:43.724Z,9.33
2018-09-20T13:35:12.428Z,11.60
2018-09-20T13:37:41.146Z,8.10
2018-09-20T13:40:09.824Z,8.57
2018-09-20T13:42:38.601Z,9.70
2018-09-20T13:45:07.501Z,10.07
2018-09-20T13:47:36.228Z,10.70
2018-09-20T13:50:05.178Z,8.77
2018-09-20T13:52:33.858Z,9.83
2018-09-20T13:55:02.481Z,9.83
2018-09-20T13:57:31.246Z,8.37
2018-09-20T14:00:00.101Z,9.87
2018-09-20T14:02:28.692Z,9.73
2018-09-20T14:04:57.449Z,13.27
2018-09-20T14:07:26.297Z,11.03
2018-09-20T14:09:54.985Z,9.80
2018-09-20T14:12:23.827Z,10.90
2018-09-20T14:14:52.543Z,6.87
2018-09-20T14:17:22.077Z,9.63
2018-09-20T14:19:50.869Z,10.07
2018-09-20T14:22:19.573Z,7.90
2018-09-20T14:24:48.226Z,7.33
2018-09-20T14:27:17.968Z,11.73
2018-09-20T14:29:46.669Z,10.78
2018-09-20T14:32:15.359Z,11.27
2018-09-20T14:34:44.133Z,9.85
2018-09-20T14:37:12.905Z,9.70
2018-09-20T14:39:42.590Z,8.48
2018-09-20T14:42:11.926Z,8.55
2018-09-20T14:44:41.143Z,10.35
2018-09-20T14:47:09.839Z,15.10
2018-09-20T14:49:38.476Z,9.53
2018-09-20T14:52:07.302Z,14.38
2018-09-20T14:54:35.987Z,10.80
2018-09-20T14:57:04.657Z,8.75
2018-09-20T14:59:33.407Z,11.60
2018-09-20T15:02:02.077Z,8.25
2018-09-20T15:04:30.865Z,8.75
2018-09-20T15:06:59.592Z,10.15
2018-09-20T15:09:28.836Z,13.35
2018-09-20T15:11:57.512Z,9.48
2018-09-20T15:14:26.247Z,10.20
2018-09-20T15:16:55.003Z,10.18
2018-09-20T15:19:24.232Z,11.15
2018-09-20T15:21:52.942Z,11.00
2018-09-20T15:24:22.366Z,11.80
2018-09-20T15:26:52.885Z,12.82
2018-09-20T15:29:21.600Z,9.78
2018-09-20T15:31:51.727Z,8.58
2018-09-20T15:34:21.070Z,11.00
2018-09-20T15:36:49.682Z,10.45
2018-09-20T15:39:18.320Z,8.78
2018-09-20T15:41:47.058Z,9.85
2018-09-20T15:44:15.781Z,10.08
2018-09-20T15:46:45.058Z,11.55
2018-09-20T15:49:13.796Z,14.05
2018-09-20T15:51:42.642Z,11.20
2018-09-20T15:54:11.312Z,9.70
2018-09-20T15:56:39.884Z,7.20
2018-09-20T15:59:08.602Z,10.40
2018-09-20T16:01:37.298Z,11.85
2018-09-20T16:04:06.132Z,10.80
2018-09-20T16:06:35.191Z,11.20
2018-09-20T16:09:05.161Z,11.08
2018-09-20T16:11:33.877Z,9.33
2018-09-20T16:14:02.709Z,11.80
2018-09-20T16:16:31.451Z,8.85
2018-09-20T16:19:00.351Z,8.05
2018-09-20T16:21:29.995Z,7.83
2018-09-20T16:23:58.754Z,9.50
2018-09-20T16:26:27.532Z,7.40
2018-09-20T16:29:06.172Z,6.90
2018-09-20T16:33:58.619Z,8.33
2018-09-20T16:36:37.988Z,10.93
2018-09-20T16:39:18.757Z,11.27
2018-09-20T16:41:49.257Z,10.87
2018-09-20T16:44:17.975Z,8.43
2018-09-20T16:46:46.807Z,11.00
2018-09-20T16:49:15.596Z,9.07
2018-09-20T16:51:44.337Z,13.50
2018-09-20T16:54:13.177Z,10.87
2018-09-20T16:56:41.861Z,12.87
2018-09-20T16:59:10.581Z,9.60
2018-09-20T17:01:39.277Z,9.50
2018-09-20T17:04:07.952Z,10.70
2018-09-20T17:06:36.592Z,10.97
2018-09-20T17:09:07.744Z,9.70
2018-09-20T17:11:36.463Z,11.47
2018-09-20T17:14:06.442Z,10.50
2018-09-20T17:18:02.725Z,11.80
2018-09-20T17:20:31.461Z,9.57
2018-09-20T17:23:00.160Z,9.43
2018-09-20T17:25:28.841Z,9.27
2018-09-20T17:27:57.519Z,11.93
2018-09-20T17:30:26.237Z,8.13
2018-09-20T17:32:54.961Z,8.17
2018-09-20T17:35:24.191Z,7.33
2018-09-20T17:37:53.555Z,7.80
2018-09-20T17:40:24.670Z,8.40
2018-09-20T17:42:56.653Z,12.07
2018-09-20T17:45:25.326Z,9.30
2018-09-20T17:47:54.044Z,7.80
2018-09-20T17:50:22.743Z,7.47
2018-09-20T17:52:51.744Z,11.63
2018-09-20T17:55:20.790Z,9.17
2018-09-20T17:57:49.798Z,8.70
2018-09-20T18:00:18.504Z,11.33
2018-09-20T18:02:47.213Z,12.43
2018-09-20T18:05:15.849Z,10.27
2018-09-20T18:07:45.212Z,7.37
2018-09-20T18:10:13.940Z,9.97
2018-09-20T18:12:43.010Z,7.70
2018-09-20T18:15:11.875Z,11.40
2018-09-20T18:17:40.680Z,12.13
2018-09-20T18:20:09.325Z,8.13
2018-09-20T18:22:39.178Z,11.93
2018-09-20T18:25:07.812Z,10.83
2018-09-20T18:27:36.678Z,9.53
2018-09-20T18:30:05.494Z,7.30
2018-09-20T18:32:34.191Z,7.53
2018-09-20T18:35:02.946Z,11.27
2018-09-20T18:37:33.516Z,9.87
2018-09-20T18:40:02.284Z,9.10
2018-09-20T18:42:31.291Z,7.90
2018-09-20T18:44:59.909Z,9.20
2018-09-20T18:47:28.750Z,10.77
2018-09-20T18:49:57.450Z,10.70
2018-09-20T18:52:26.252Z,10.83
2018-09-20T18:54:54.978Z,9.13
2018-09-20T18:57:23.645Z,10.10
2018-09-20T18:59:52.295Z,10.80
2018-09-20T19:02:20.962Z,12.27
2018-09-20T19:04:49.673Z,8.23
2018-09-20T19:07:18.458Z,10.00
2018-09-20T19:09:47.156Z,9.80
2018-09-20T19:12:15.827Z,8.30
2018-09-20T19:14:44.465Z,9.60
2018-09-20T19:17:13.798Z,9.53
2018-09-20T19:19:42.489Z,9.67
2018-09-20T19:22:11.161Z,13.47
2018-09-20T19:24:41.297Z,11.70
2018-09-20T19:27:10.206Z,16.20
2018-09-20T19:29:38.862Z,13.50
2018-09-20T19:32:07.788Z,13.10
2018-09-20T19:34:36.820Z,16.47
2018-09-20T19:37:05.484Z,19.50
2018-09-20T19:39:34.238Z,18.23
2018-09-20T19:42:03.041Z,16.73
2018-09-20T19:44:31.667Z,19.70
2018-09-20T19:47:00.319Z,18.67
2018-09-20T19:49:28.977Z,20.60
2018-09-20T19:51:57.655Z,17.30
2018-09-20T19:54:26.295Z,18.87
2018-09-20T19:56:54.933Z,14.67
2018-09-20T19:59:23.604Z,15.47
2018-09-20T20:01:52.269Z,16.10
2018-09-20T20:04:20.963Z,14.57
2018-09-20T20:06:50.212Z,10.97
2018-09-20T20:09:18.820Z,16.97
2018-09-20T20:11:47.461Z,11.90
2018-09-20T20:14:16.160Z,11.00
2018-09-20T20:16:44.817Z,14.43
2018-09-20T20:19:13.493Z,12.23
2018-09-20T20:21:42.247Z,13.93
2018-09-20T20:24:10.898Z,13.40
2018-09-20T20:26:39.557Z,13.97
2018-09-20T20:29:08.755Z,14.30
2018-09-20T20:31:37.487Z,15.87
2018-09-20T20:34:06.183Z,14.37
2018-09-20T20:36:34.838Z,13.10
2018-09-20T20:39:03.611Z,13.03
2018-09-20T20:41:32.282Z,11.70
2018-09-20T20:44:00.887Z,9.70
2018-09-20T20:46:29.490Z,9.30
2018-09-20T20:48:58.170Z,12.13
2018-09-20T20:51:26.878Z,12.40
2018-09-20T20:53:55.550Z,7.10
2018-09-20T20:56:24.230Z,12.43
2018-09-20T20:58:52.876Z,13.17
2018-09-20T21:01:22.015Z,7.40
2018-09-20T21:03:51.061Z,7.80
2018-09-20T21:06:19.986Z,9.80
2018-09-20T21:08:48.711Z,10.47
2018-09-20T21:11:17.469Z,9.40
2018-09-20T21:13:46.119Z,8.33
2018-09-20T21:16:14.836Z,11.47
2018-09-20T21:18:43.534Z,8.87
2018-09-20T21:21:12.286Z,12.97
2018-09-20T21:23:41.053Z,8.90
2018-09-20T21:26:09.841Z,8.43
2018-09-20T21:28:38.505Z,10.67
2018-09-20T21:31:07.183Z,9.73
2018-09-20T21:33:35.842Z,12.47
2018-09-20T21:36:04.510Z,11.77
2018-09-20T21:38:33.122Z,10.40
2018-09-20T21:41:01.799Z,12.00
2018-09-20T21:43:31.313Z,7.93
2018-09-20T21:45:59.940Z,7.90
2018-09-20T21:48:28.698Z,7.67
2018-09-20T21:50:57.425Z,9.97
2018-09-20T21:53:26.077Z,8.03
2018-09-20T21:55:54.766Z,8.87
2018-09-20T21:58:23.444Z,8.20
2018-09-20T22:00:56.329Z,11.50
2018-09-20T22:03:25.075Z,10.00
2018-09-20T22:05:53.679Z,11.90
2018-09-20T22:08:22.324Z,10.73
2018-09-20T22:10:51.119Z,11.90
2018-09-20T22:13:19.694Z,6.17
2018-09-20T22:15:48.388Z,8.90
2018-09-20T22:18:17.049Z,10.10
2018-09-20T22:20:45.685Z,9.50
2018-09-20T22:23:14.307Z,8.60
2018-09-20T22:25:42.940Z,8.40
2018-09-20T22:28:11.592Z,11.60
2018-09-20T22:30:40.322Z,10.80
2018-09-20T22:33:09.029Z,10.90
2018-09-20T22:35:37.768Z,11.87
2018-09-20T22:38:06.434Z,8.07
2018-09-20T22:40:35.054Z,10.03
2018-09-20T22:43:03.642Z,12.60
2018-09-20T22:45:32.257Z,13.23
2018-09-20T22:48:00.827Z,12.47
2018-09-20T22:50:29.477Z,8.80
2018-09-20T22:52:58.157Z,10.13
2018-09-20T22:55:26.745Z,10.07
2018-09-20T22:57:55.394Z,8.43
2018-09-20T23:00:25.023Z,8.90
2018-09-20T23:02:55.331Z,9.20
2018-09-20T23:05:24.161Z,8.73
2018-09-20T23:07:52.907Z,10.27
2018-09-20T23:10:21.565Z,11.00
2018-09-20T23:12:50.207Z,9.63
2018-09-20T23:15:18.937Z,8.77
2018-09-20T23:17:47.717Z,8.37
2018-09-20T23:20:16.460Z,10.40
2018-09-20T23:22:45.068Z,9.80
2018-09-20T23:25:13.824Z,10.10
2018-09-20T23:27:42.545Z,12.50
2018-09-20T23:30:11.297Z,10.17
2018-09-20T23:32:39.909Z,9.97
2018-09-20T23:35:08.623Z,10.90
2018-09-20T23:37:37.303Z,8.93
2018-09-20T23:40:05.974Z,15.20
2018-09-20T23:42:34.636Z,13.00
2018-09-20T23:45:03.317Z,7.60
2018-09-20T23:47:32.001Z,11.10
2018-09-20T23:50:00.661Z,8.03
2018-09-20T23:52:29.293Z,10.53
2018-09-20T23:54:57.887Z,14.30
2018-09-20T23:57:27.205Z,13.03
2018-09-20T23:59:55.930Z,7.97
